createdAt,value
2018-02-13T12:13:24.378Z,1016.32
2018-02-13T12:14:26.227Z,1016.32
2018-02-13T12:15:28.094Z,1016.32
2018-02-13T12:16:29.960Z,1016.34
2018-02-13T12:17:31.753Z,1016.33
2018-02-13T12:18:33.543Z,1016.29
2018-02-13T12:19:35.402Z,1016.35
2018-02-13T12:20:37.262Z,1016.31
2018-02-13T12:21:39.113Z,1016.32
2018-02-13T12:22:53.245Z,1016.36
2018-02-13T12:23:55.120Z,1016.30
2018-02-13T12:24:57.030Z,1016.31
2018-02-13T12:25:58.900Z,1016.32
2018-02-13T12:27:00.715Z,1016.32
2018-02-13T12:28:02.529Z,1016.35
2018-02-13T12:29:04.393Z,1016.36
2018-02-13T12:30:06.269Z,1016.33
2018-02-13T12:31:08.131Z,1016.30
2018-02-13T12:32:22.278Z,1016.30
2018-02-13T12:33:24.137Z,1016.30
2018-02-13T12:34:26.018Z,1016.24
2018-02-13T12:35:27.899Z,1016.28
2018-02-13T12:36:29.700Z,1016.25
2018-02-13T12:37:31.519Z,1016.25
2018-02-13T12:38:33.399Z,1016.22
2018-02-13T12:39:35.378Z,1016.24
2018-02-13T12:40:37.242Z,1016.20
2018-02-13T12:41:51.387Z,1016.17
2018-02-13T12:42:53.267Z,1016.24
2018-02-13T12:43:55.126Z,1016.18
2018-02-13T12:44:57.010Z,1016.16
2018-02-13T12:45:58.831Z,1016.15
2018-02-13T12:47:00.656Z,1016.17
2018-02-13T12:48:02.524Z,1016.13
2018-02-13T12:49:04.400Z,1016.13
2018-02-13T12:50:06.271Z,1016.15
2018-02-13T12:51:20.395Z,1016.14
2018-02-13T12:52:22.274Z,1016.11
2018-02-13T12:53:24.154Z,1016.08
2018-02-13T12:54:26.019Z,1016.06
2018-02-13T12:55:27.816Z,1016.04
2018-02-13T12:56:29.618Z,1016.05
2018-02-13T12:57:31.493Z,1016.00
2018-02-13T12:58:33.353Z,1016.02
2018-02-13T12:59:35.220Z,1015.98
2018-02-13T13:00:49.369Z,1015.99
2018-02-13T13:01:51.253Z,1015.99
2018-02-13T13:02:53.108Z,1015.97
2018-02-13T13:03:54.985Z,1015.95
2018-02-13T13:04:56.784Z,1015.91
2018-02-13T13:05:58.584Z,1015.90
2018-02-13T13:07:00.445Z,1015.88
2018-02-13T13:08:02.368Z,1015.89
2018-02-13T13:09:04.277Z,1015.85
2018-02-13T13:10:18.405Z,1015.87
2018-02-13T13:11:20.289Z,1015.86
2018-02-13T13:12:22.163Z,1015.81
2018-02-13T13:13:24.091Z,1015.82
2018-02-13T13:14:25.891Z,1015.80
2018-02-13T13:15:27.700Z,1015.82
2018-02-13T13:16:29.579Z,1015.84
2018-02-13T13:17:31.457Z,1015.83
2018-02-13T13:18:33.331Z,1015.86
2018-02-13T13:19:47.473Z,1015.88
2018-02-13T13:20:49.352Z,1015.89
2018-02-13T13:21:51.209Z,1015.88
2018-02-13T13:22:53.072Z,1015.86
2018-02-13T13:23:54.871Z,1015.86
2018-02-13T13:24:56.668Z,1015.82
2018-02-13T13:25:58.549Z,1015.81
2018-02-13T13:27:00.486Z,1015.80
2018-02-13T13:28:02.350Z,1015.77
2018-02-13T13:29:16.502Z,1015.78
2018-02-13T13:30:18.381Z,1015.78
2018-02-13T13:31:20.257Z,1015.76
2018-02-13T13:32:22.123Z,1015.80
2018-02-13T13:33:23.941Z,1015.76
2018-02-13T13:34:25.742Z,1015.70
2018-02-13T13:35:27.606Z,1015.75
2018-02-13T13:36:29.548Z,1015.72
2018-02-13T13:37:31.411Z,1015.67
2018-02-13T13:38:45.590Z,1015.70
2018-02-13T13:39:47.453Z,1015.65
2018-02-13T13:40:49.313Z,1015.66
2018-02-13T13:41:51.194Z,1015.62
2018-02-13T13:42:53.012Z,1015.61
2018-02-13T13:43:54.874Z,1015.62
2018-02-13T13:44:56.845Z,1015.58
2018-02-13T13:45:58.705Z,1015.60
2018-02-13T13:47:00.588Z,1015.57
2018-02-13T13:48:14.780Z,1015.57
2018-02-13T13:49:16.660Z,1015.52
2018-02-13T13:50:18.533Z,1015.53
2018-02-13T13:51:20.400Z,1015.53
2018-02-13T13:52:22.214Z,1015.51
2018-02-13T13:53:24.038Z,1015.50
2018-02-13T13:54:25.866Z,1015.50
2018-02-13T13:55:27.749Z,1015.48
2018-02-13T13:56:29.608Z,1015.45
2018-02-13T13:57:43.730Z,1015.45
2018-02-13T13:58:45.589Z,1015.42
2018-02-13T13:59:47.469Z,1015.38
2018-02-13T14:00:49.329Z,1015.31
2018-02-13T14:01:51.126Z,1015.35
2018-02-13T14:02:52.921Z,1015.29
2018-02-13T14:03:54.775Z,1015.34
2018-02-13T14:04:56.639Z,1015.30
2018-02-13T14:05:58.502Z,1015.31
2018-02-13T14:07:12.626Z,1015.30
2018-02-13T14:08:14.493Z,1015.29
2018-02-13T14:09:16.366Z,1015.27
2018-02-13T14:10:18.219Z,1015.28
2018-02-13T14:11:20.022Z,1015.27
2018-02-13T14:12:21.817Z,1015.28
2018-02-13T14:13:23.675Z,1015.28
2018-02-13T14:14:25.532Z,1015.27
2018-02-13T14:15:27.394Z,1015.24
2018-02-13T14:16:41.528Z,1015.20
2018-02-13T14:17:43.394Z,1015.20
2018-02-13T14:18:45.270Z,1015.28
2018-02-13T14:19:47.145Z,1015.25
2018-02-13T14:20:48.963Z,1015.21
2018-02-13T14:21:50.774Z,1015.23
2018-02-13T14:22:52.640Z,1015.22
2018-02-13T14:23:54.519Z,1015.20
2018-02-13T14:24:56.403Z,1015.20
2018-02-13T14:26:10.561Z,1015.23
2018-02-13T14:27:12.421Z,1015.20
2018-02-13T14:28:14.325Z,1015.18
2018-02-13T14:29:16.223Z,1015.18
2018-02-13T14:30:18.257Z,1015.17
2018-02-13T14:31:20.066Z,1015.19
2018-02-13T14:32:21.923Z,1015.22
2018-02-13T14:33:23.818Z,1015.21
2018-02-13T14:34:25.735Z,1015.23
2018-02-13T14:35:39.858Z,1015.20
2018-02-13T14:36:41.740Z,1015.24
2018-02-13T14:37:43.621Z,1015.20
2018-02-13T14:38:45.495Z,1015.23
2018-02-13T14:39:47.304Z,1015.23
2018-02-13T14:40:49.106Z,1015.20
2018-02-13T14:41:50.963Z,1015.23
2018-02-13T14:42:52.835Z,1015.22
2018-02-13T14:43:54.698Z,1015.19
2018-02-13T14:45:08.905Z,1015.19
2018-02-13T14:46:10.780Z,1015.20
2018-02-13T14:47:12.651Z,1015.18
2018-02-13T14:48:14.517Z,1015.21
2018-02-13T14:49:16.336Z,1015.21
2018-02-13T14:50:18.137Z,1015.24
2018-02-13T14:51:19.988Z,1015.19
2018-02-13T14:52:21.862Z,1015.21
2018-02-13T14:53:23.723Z,1015.23
2018-02-13T14:54:37.869Z,1015.24
2018-02-13T14:55:39.725Z,1015.24
2018-02-13T14:56:41.581Z,1015.22
2018-02-13T14:57:43.463Z,1015.22
2018-02-13T14:58:45.281Z,1015.19
2018-02-13T14:59:47.077Z,1015.21
2018-02-13T15:00:48.958Z,1015.22
2018-02-13T15:01:50.828Z,1015.22
2018-02-13T15:02:52.681Z,1015.18
2018-02-13T15:04:06.812Z,1015.20
2018-02-13T15:05:08.682Z,1015.22
2018-02-13T15:06:10.541Z,1015.17
2018-02-13T15:07:12.423Z,1015.15
2018-02-13T15:08:14.238Z,1015.16
2018-02-13T15:09:16.031Z,1015.15
2018-02-13T15:10:17.890Z,1015.18
2018-02-13T15:11:19.812Z,1015.16
2018-02-13T15:12:21.660Z,1015.17
2018-02-13T15:13:35.819Z,1015.19
2018-02-13T15:14:37.694Z,1015.19
2018-02-13T15:15:39.581Z,1015.15
2018-02-13T15:16:41.448Z,1015.23
2018-02-13T15:17:43.265Z,1015.17
2018-02-13T15:18:45.074Z,1015.20
2018-02-13T15:19:46.968Z,1015.21
2018-02-13T15:20:48.849Z,1015.22
2018-02-13T15:21:50.824Z,1015.17
2018-02-13T15:23:05.071Z,1015.24
2018-02-13T15:24:06.949Z,1015.20
2018-02-13T15:25:08.823Z,1015.22
2018-02-13T15:26:10.713Z,1015.25
2018-02-13T15:27:12.535Z,1015.27
2018-02-13T15:28:14.348Z,1015.24
2018-02-13T15:29:16.490Z,1015.27
2018-02-13T15:30:19.022Z,1015.25
2018-02-13T15:31:20.878Z,1015.27
2018-02-13T15:32:35.054Z,1015.28
2018-02-13T15:33:36.903Z,1015.26
2018-02-13T15:34:38.812Z,1015.25
2018-02-13T15:35:40.692Z,1015.22
2018-02-13T15:36:42.508Z,1015.28
2018-02-13T15:37:44.300Z,1015.28
2018-02-13T15:38:46.118Z,1015.29
2018-02-13T15:39:47.913Z,1015.26
2018-02-13T15:40:49.775Z,1015.30
2018-02-13T15:42:04.046Z,1015.26
2018-02-13T15:43:05.920Z,1015.31
2018-02-13T15:44:07.818Z,1015.27
2018-02-13T15:45:09.688Z,1015.27
2018-02-13T15:46:11.538Z,1015.25
2018-02-13T15:47:13.450Z,1015.30
2018-02-13T15:48:15.348Z,1015.29
2018-02-13T15:49:17.234Z,1015.25
2018-02-13T15:50:19.106Z,1015.27
2018-02-13T15:51:33.321Z,1015.28
2018-02-13T15:52:35.222Z,1015.32
2018-02-13T15:53:37.073Z,1015.34
2018-02-13T15:54:38.934Z,1015.30
2018-02-13T15:55:40.745Z,1015.32
